sensor_id;sensor_type;location;lat;lon;timestamp;temperature;humidity
51884;DHT22;37915;53.254;6.598;2022-09-09T00:04:35;15.20;99.90
51884;DHT22;37915;53.254;6.598;2022-09-09T00:07:19;15.10;99.90
51884;DHT22;37915;53.254;6.598;2022-09-09T00:23:29;15.10;99.90
51884;DHT22;37915;53.254;6.598;2022-09-09T00:26:16;15.10;99.90
51884;DHT22;37915;53.254;6.598;2022-09-09T00:29:05;15.00;99.90
51884;DHT22;37915;53.254;6.598;2022-09-09T00:31:35;15.00;99.90
51884;DHT22;37915;53.254;6.598;2022-09-09T00:34:23;15.10;99.90
51884;DHT22;37915;53.254;6.598;2022-09-09T00:36:52;15.00;99.90
51884;DHT22;37915;53.254;6.598;2022-09-09T00:47:52;14.90;99.90
51884;DHT22;37915;53.254;6.598;2022-09-09T00:55:55;14.90;99.90
51884;DHT22;37915;53.254;6.598;2022-09-09T00:58:25;14.90;99.90
51884;DHT22;37915;53.254;6.598;2022-09-09T01:01:01;14.90;99.90
51884;DHT22;37915;53.254;6.598;2022-09-09T01:03:36;14.80;99.90
51884;DHT22;37915;53.254;6.598;2022-09-09T01:06:14;14.80;99.90
51884;DHT22;37915;53.254;6.598;2022-09-09T01:11:26;14.80;99.90
51884;DHT22;37915;53.254;6.598;2022-09-09T01:16:59;14.80;99.90
51884;DHT22;37915;53.254;6.598;2022-09-09T01:22:26;14.70;99.90
51884;DHT22;37915;53.254;6.598;2022-09-09T01:25:29;14.70;99.90
51884;DHT22;37915;53.254;6.598;2022-09-09T01:28:01;14.70;99.90
51884;DHT22;37915;53.254;6.598;2022-09-09T01:30:28;14.60;99.90
51884;DHT22;37915;53.254;6.598;2022-09-09T01:32:56;14.60;99.90
51884;DHT22;37915;53.254;6.598;2022-09-09T01:37:56;14.60;99.90
51884;DHT22;37915;53.254;6.598;2022-09-09T01:40:22;14.60;99.90
51884;DHT22;37915;53.254;6.598;2022-09-09T01:42:48;14.60;99.90
51884;DHT22;37915;53.254;6.598;2022-09-09T01:45:13;14.60;99.90
51884;DHT22;37915;53.254;6.598;2022-09-09T01:47:40;14.60;99.90
51884;DHT22;37915;53.254;6.598;2022-09-09T01:50:07;14.60;99.90
51884;DHT22;37915;53.254;6.598;2022-09-09T01:52:36;14.60;99.90
51884;DHT22;37915;53.254;6.598;2022-09-09T01:55:02;14.60;99.90
51884;DHT22;37915;53.254;6.598;2022-09-09T01:57:34;14.60;99.90
51884;DHT22;37915;53.254;6.598;2022-09-09T02:00:10;14.60;99.90
51884;DHT22;37915;53.254;6.598;2022-09-09T02:05:45;14.50;99.90
51884;DHT22;37915;53.254;6.598;2022-09-09T02:08:40;14.50;99.90
51884;DHT22;37915;53.254;6.598;2022-09-09T02:11:19;14.50;99.90
51884;DHT22;37915;53.254;6.598;2022-09-09T02:13:48;14.50;99.90
51884;DHT22;37915;53.254;6.598;2022-09-09T02:19:16;14.50;99.90
51884;DHT22;37915;53.254;6.598;2022-09-09T02:21:41;14.50;99.90
51884;DHT22;37915;53.254;6.598;2022-09-09T02:24:09;14.50;99.90
51884;DHT22;37915;53.254;6.598;2022-09-09T02:26:40;14.50;99.90
51884;DHT22;37915;53.254;6.598;2022-09-09T02:29:19;14.50;99.90
51884;DHT22;37915;53.254;6.598;2022-09-09T02:31:47;14.50;99.90
51884;DHT22;37915;53.254;6.598;2022-09-09T02:34:17;14.50;99.90
51884;DHT22;37915;53.254;6.598;2022-09-09T02:36:46;14.50;99.90
51884;DHT22;37915;53.254;6.598;2022-09-09T02:39:13;14.50;99.90
51884;DHT22;37915;53.254;6.598;2022-09-09T02:41:40;14.50;99.90
51884;DHT22;37915;53.254;6.598;2022-09-09T02:44:11;14.50;99.90
51884;DHT22;37915;53.254;6.598;2022-09-09T02:49:19;14.50;99.90
51884;DHT22;37915;53.254;6.598;2022-09-09T02:52:05;14.50;99.90
51884;DHT22;37915;53.254;6.598;2022-09-09T02:54:37;14.50;99.90
51884;DHT22;37915;53.254;6.598;2022-09-09T02:57:25;14.50;99.90
51884;DHT22;37915;53.254;6.598;2022-09-09T02:59:53;14.50;99.90
51884;DHT22;37915;53.254;6.598;2022-09-09T03:02:20;14.50;99.90
51884;DHT22;37915;53.254;6.598;2022-09-09T03:04:46;14.50;99.90
51884;DHT22;37915;53.254;6.598;2022-09-09T03:07:16;14.50;99.90
51884;DHT22;37915;53.254;6.598;2022-09-09T03:09:42;14.60;99.90
51884;DHT22;37915;53.254;6.598;2022-09-09T03:12:08;14.50;99.90
51884;DHT22;37915;53.254;6.598;2022-09-09T03:14:36;14.60;99.90
51884;DHT22;37915;53.254;6.598;2022-09-09T03:17:04;14.50;99.90
51884;DHT22;37915;53.254;6.598;2022-09-09T03:19:30;14.60;99.90
51884;DHT22;37915;53.254;6.598;2022-09-09T03:21:57;14.50;99.90
51884;DHT22;37915;53.254;6.598;2022-09-09T03:24:24;14.60;99.90
51884;DHT22;37915;53.254;6.598;2022-09-09T03:26:50;14.60;99.90
51884;DHT22;37915;53.254;6.598;2022-09-09T03:29:16;14.60;99.90
51884;DHT22;37915;53.254;6.598;2022-09-09T03:31:43;14.60;99.90
51884;DHT22;37915;53.254;6.598;2022-09-09T03:34:08;14.60;99.90
51884;DHT22;37915;53.254;6.598;2022-09-09T03:36:34;14.60;99.90
51884;DHT22;37915;53.254;6.598;2022-09-09T03:39:00;14.60;99.90
51884;DHT22;37915;53.254;6.598;2022-09-09T03:41:31;14.60;99.90
51884;DHT22;37915;53.254;6.598;2022-09-09T03:43:56;14.70;99.90
51884;DHT22;37915;53.254;6.598;2022-09-09T03:46:24;14.70;99.90
51884;DHT22;37915;53.254;6.598;2022-09-09T03:48:50;14.70;99.90
51884;DHT22;37915;53.254;6.598;2022-09-09T03:51:17;14.70;99.90
51884;DHT22;37915;53.254;6.598;2022-09-09T03:53:43;14.70;99.90
51884;DHT22;37915;53.254;6.598;2022-09-09T03:56:09;14.70;99.90
51884;DHT22;37915;53.254;6.598;2022-09-09T03:58:36;14.70;99.90
51884;DHT22;37915;53.254;6.598;2022-09-09T04:01:05;14.80;99.90
51884;DHT22;37915;53.254;6.598;2022-09-09T04:03:31;14.70;99.90
51884;DHT22;37915;53.254;6.598;2022-09-09T04:05:59;14.70;99.90
51884;DHT22;37915;53.254;6.598;2022-09-09T04:08:26;14.70;99.90
51884;DHT22;37915;53.254;6.598;2022-09-09T04:10:53;14.70;99.90
51884;DHT22;37915;53.254;6.598;2022-09-09T04:13:19;14.80;99.90
51884;DHT22;37915;53.254;6.598;2022-09-09T04:15:54;14.80;99.90
51884;DHT22;37915;53.254;6.598;2022-09-09T04:18:21;14.80;99.90
51884;DHT22;37915;53.254;6.598;2022-09-09T04:20:51;14.80;99.90
51884;DHT22;37915;53.254;6.598;2022-09-09T04:23:18;14.80;99.90
51884;DHT22;37915;53.254;6.598;2022-09-09T04:25:45;14.80;99.90
51884;DHT22;37915;53.254;6.598;2022-09-09T04:28:13;14.80;99.90
51884;DHT22;37915;53.254;6.598;2022-09-09T04:30:38;14.90;99.90
51884;DHT22;37915;53.254;6.598;2022-09-09T04:33:06;14.90;99.90
51884;DHT22;37915;53.254;6.598;2022-09-09T04:35:32;14.90;99.90
51884;DHT22;37915;53.254;6.598;2022-09-09T04:37:58;14.90;99.90
51884;DHT22;37915;53.254;6.598;2022-09-09T04:40:24;15.00;99.90
51884;DHT22;37915;53.254;6.598;2022-09-09T04:42:50;15.00;99.90
51884;DHT22;37915;53.254;6.598;2022-09-09T04:45:17;15.00;99.90
51884;DHT22;37915;53.254;6.598;2022-09-09T04:47:43;14.90;99.90
51884;DHT22;37915;53.254;6.598;2022-09-09T04:50:09;15.00;99.90
51884;DHT22;37915;53.254;6.598;2022-09-09T04:52:35;15.00;99.90
51884;DHT22;37915;53.254;6.598;2022-09-09T04:55:01;14.90;99.90
51884;DHT22;37915;53.254;6.598;2022-09-09T04:57:27;15.00;99.90
51884;DHT22;37915;53.254;6.598;2022-09-09T04:59:54;14.90;99.90
51884;DHT22;37915;53.254;6.598;2022-09-09T05:02:20;14.90;99.90
51884;DHT22;37915;53.254;6.598;2022-09-09T05:04:45;14.90;99.90
51884;DHT22;37915;53.254;6.598;2022-09-09T05:07:11;14.90;99.90
51884;DHT22;37915;53.254;6.598;2022-09-09T05:09:37;14.90;99.90
51884;DHT22;37915;53.254;6.598;2022-09-09T05:12:02;14.90;99.90
51884;DHT22;37915;53.254;6.598;2022-09-09T05:14:28;14.90;99.90
51884;DHT22;37915;53.254;6.598;2022-09-09T05:16:55;14.90;99.90
51884;DHT22;37915;53.254;6.598;2022-09-09T05:19:21;14.90;99.90
51884;DHT22;37915;53.254;6.598;2022-09-09T05:21:47;14.90;99.90
51884;DHT22;37915;53.254;6.598;2022-09-09T05:24:13;14.80;99.90
51884;DHT22;37915;53.254;6.598;2022-09-09T05:26:39;14.80;99.90
51884;DHT22;37915;53.254;6.598;2022-09-09T05:29:05;14.80;99.90
51884;DHT22;37915;53.254;6.598;2022-09-09T05:31:31;14.80;99.90
51884;DHT22;37915;53.254;6.598;2022-09-09T05:33:58;14.80;99.90
51884;DHT22;37915;53.254;6.598;2022-09-09T05:36:24;14.80;99.90
51884;DHT22;37915;53.254;6.598;2022-09-09T05:38:50;14.80;99.90
51884;DHT22;37915;53.254;6.598;2022-09-09T05:41:19;14.70;99.90
51884;DHT22;37915;53.254;6.598;2022-09-09T05:43:46;14.70;99.90
51884;DHT22;37915;53.254;6.598;2022-09-09T05:46:16;14.80;99.90
51884;DHT22;37915;53.254;6.598;2022-09-09T05:48:44;14.80;99.90
51884;DHT22;37915;53.254;6.598;2022-09-09T05:51:13;14.70;99.90
51884;DHT22;37915;53.254;6.598;2022-09-09T05:53:41;14.70;99.90
51884;DHT22;37915;53.254;6.598;2022-09-09T05:56:10;14.70;99.90
51884;DHT22;37915;53.254;6.598;2022-09-09T05:58:37;14.70;99.90
51884;DHT22;37915;53.254;6.598;2022-09-09T06:01:09;14.80;99.90
51884;DHT22;37915;53.254;6.598;2022-09-09T06:03:36;14.80;99.90
51884;DHT22;37915;53.254;6.598;2022-09-09T06:06:10;14.70;99.90
51884;DHT22;37915;53.254;6.598;2022-09-09T06:08:41;14.80;99.90
51884;DHT22;37915;53.254;6.598;2022-09-09T06:11:27;14.80;99.90
51884;DHT22;37915;53.254;6.598;2022-09-09T06:13:53;14.80;99.90
51884;DHT22;37915;53.254;6.598;2022-09-09T06:16:22;14.80;99.90
51884;DHT22;37915;53.254;6.598;2022-09-09T06:18:51;14.80;99.90
51884;DHT22;37915;53.254;6.598;2022-09-09T06:21:40;14.80;99.90
51884;DHT22;37915;53.254;6.598;2022-09-09T06:24:06;14.80;99.90
51884;DHT22;37915;53.254;6.598;2022-09-09T06:26:37;14.80;99.90
51884;DHT22;37915;53.254;6.598;2022-09-09T06:29:07;14.80;99.90
51884;DHT22;37915;53.254;6.598;2022-09-09T06:31:34;14.80;99.90
51884;DHT22;37915;53.254;6.598;2022-09-09T06:34:04;14.80;99.90
51884;DHT22;37915;53.254;6.598;2022-09-09T06:36:33;14.90;99.90
51884;DHT22;37915;53.254;6.598;2022-09-09T06:38:59;14.90;99.90
51884;DHT22;37915;53.254;6.598;2022-09-09T06:41:27;14.90;99.90
51884;DHT22;37915;53.254;6.598;2022-09-09T06:43:54;14.90;99.90
51884;DHT22;37915;53.254;6.598;2022-09-09T06:46:26;14.90;99.90
51884;DHT22;37915;53.254;6.598;2022-09-09T06:48:54;14.90;99.90
51884;DHT22;37915;53.254;6.598;2022-09-09T06:51:24;15.00;99.90
51884;DHT22;37915;53.254;6.598;2022-09-09T06:53:55;15.00;99.90
51884;DHT22;37915;53.254;6.598;2022-09-09T06:56:28;15.00;99.90
51884;DHT22;37915;53.254;6.598;2022-09-09T06:58:56;15.00;99.90
51884;DHT22;37915;53.254;6.598;2022-09-09T07:01:25;15.00;99.90
51884;DHT22;37915;53.254;6.598;2022-09-09T07:03:53;15.00;99.90
51884;DHT22;37915;53.254;6.598;2022-09-09T07:06:24;15.10;99.90
51884;DHT22;37915;53.254;6.598;2022-09-09T07:08:55;15.10;99.90
51884;DHT22;37915;53.254;6.598;2022-09-09T07:11:25;15.20;99.90
51884;DHT22;37915;53.254;6.598;2022-09-09T07:13:52;15.30;99.90
51884;DHT22;37915;53.254;6.598;2022-09-09T07:16:20;15.30;99.90
51884;DHT22;37915;53.254;6.598;2022-09-09T07:18:46;15.30;99.90
51884;DHT22;37915;53.254;6.598;2022-09-09T07:21:13;15.30;99.90
51884;DHT22;37915;53.254;6.598;2022-09-09T07:23:39;15.40;99.90
51884;DHT22;37915;53.254;6.598;2022-09-09T07:26:14;15.40;99.90
51884;DHT22;37915;53.254;6.598;2022-09-09T07:28:40;15.40;99.90
51884;DHT22;37915;53.254;6.598;2022-09-09T07:31:08;15.50;99.90
51884;DHT22;37915;53.254;6.598;2022-09-09T07:33:39;15.50;99.90
51884;DHT22;37915;53.254;6.598;2022-09-09T07:36:16;15.50;99.90
51884;DHT22;37915;53.254;6.598;2022-09-09T07:38:48;15.60;99.90
51884;DHT22;37915;53.254;6.598;2022-09-09T07:41:29;15.60;99.90
51884;DHT22;37915;53.254;6.598;2022-09-09T07:43:56;15.60;99.90
51884;DHT22;37915;53.254;6.598;2022-09-09T07:46:24;15.70;99.90
51884;DHT22;37915;53.254;6.598;2022-09-09T07:48:53;15.60;99.90
51884;DHT22;37915;53.254;6.598;2022-09-09T07:51:30;15.70;99.90
51884;DHT22;37915;53.254;6.598;2022-09-09T07:54:01;15.70;99.90
51884;DHT22;37915;53.254;6.598;2022-09-09T07:56:30;15.80;99.90
51884;DHT22;37915;53.254;6.598;2022-09-09T07:58:58;15.80;99.90
51884;DHT22;37915;53.254;6.598;2022-09-09T08:01:27;15.80;99.90
51884;DHT22;37915;53.254;6.598;2022-09-09T08:06:35;15.90;99.90
51884;DHT22;37915;53.254;6.598;2022-09-09T08:09:02;15.90;99.90
51884;DHT22;37915;53.254;6.598;2022-09-09T08:11:29;16.00;99.90
51884;DHT22;37915;53.254;6.598;2022-09-09T08:13:55;16.00;99.90
51884;DHT22;37915;53.254;6.598;2022-09-09T08:16:24;16.10;99.90
51884;DHT22;37915;53.254;6.598;2022-09-09T08:18:50;16.20;99.90
51884;DHT22;37915;53.254;6.598;2022-09-09T08:21:22;16.20;99.90
51884;DHT22;37915;53.254;6.598;2022-09-09T08:23:51;16.20;99.90
51884;DHT22;37915;53.254;6.598;2022-09-09T08:26:35;16.20;99.90
51884;DHT22;37915;53.254;6.598;2022-09-09T08:29:03;16.40;99.90
51884;DHT22;37915;53.254;6.598;2022-09-09T08:31:35;16.50;99.90
51884;DHT22;37915;53.254;6.598;2022-09-09T08:34:01;16.60;99.90
51884;DHT22;37915;53.254;6.598;2022-09-09T08:36:31;16.70;99.90
51884;DHT22;37915;53.254;6.598;2022-09-09T08:38:59;16.70;99.90
51884;DHT22;37915;53.254;6.598;2022-09-09T08:47:21;16.90;99.90
51884;DHT22;37915;53.254;6.598;2022-09-09T08:50:04;17.10;99.90
51884;DHT22;37915;53.254;6.598;2022-09-09T08:55:42;17.30;99.90
51884;DHT22;37915;53.254;6.598;2022-09-09T09:11:48;17.80;99.90
51884;DHT22;37915;53.254;6.598;2022-09-09T09:14:21;17.80;99.90
51884;DHT22;37915;53.254;6.598;2022-09-09T09:17:00;17.90;99.90
51884;DHT22;37915;53.254;6.598;2022-09-09T09:19:28;17.90;99.90
51884;DHT22;37915;53.254;6.598;2022-09-09T09:22:24;17.90;99.90
51884;DHT22;37915;53.254;6.598;2022-09-09T09:30:20;17.80;99.90
51884;DHT22;37915;53.254;6.598;2022-09-09T09:35:26;17.70;99.90
51884;DHT22;37915;53.254;6.598;2022-09-09T09:37:52;17.70;99.90
51884;DHT22;37915;53.254;6.598;2022-09-09T09:40:20;17.70;99.90
51884;DHT22;37915;53.254;6.598;2022-09-09T09:43:16;17.70;99.90
51884;DHT22;37915;53.254;6.598;2022-09-09T09:45:45;17.70;99.90
51884;DHT22;37915;53.254;6.598;2022-09-09T09:48:12;17.70;99.90
51884;DHT22;37915;53.254;6.598;2022-09-09T09:50:51;17.70;99.90
51884;DHT22;37915;53.254;6.598;2022-09-09T09:53:26;17.80;99.90
51884;DHT22;37915;53.254;6.598;2022-09-09T09:56:00;17.90;99.90
51884;DHT22;37915;53.254;6.598;2022-09-09T09:58:30;17.90;99.90
51884;DHT22;37915;53.254;6.598;2022-09-09T10:00:57;18.00;99.90
51884;DHT22;37915;53.254;6.598;2022-09-09T10:03:28;18.00;99.90
51884;DHT22;37915;53.254;6.598;2022-09-09T10:05:55;18.10;99.90
51884;DHT22;37915;53.254;6.598;2022-09-09T10:08:23;18.20;99.90
51884;DHT22;37915;53.254;6.598;2022-09-09T10:14:08;18.40;99.90
51884;DHT22;37915;53.254;6.598;2022-09-09T10:16:59;18.50;99.90
51884;DHT22;37915;53.254;6.598;2022-09-09T10:19:34;18.50;99.90
51884;DHT22;37915;53.254;6.598;2022-09-09T10:25:02;18.60;99.90
51884;DHT22;37915;53.254;6.598;2022-09-09T10:27:27;18.70;99.90
51884;DHT22;37915;53.254;6.598;2022-09-09T10:30:09;18.70;99.90
51884;DHT22;37915;53.254;6.598;2022-09-09T10:38:08;18.60;99.90
51884;DHT22;37915;53.254;6.598;2022-09-09T10:51:55;18.40;99.90
51884;DHT22;37915;53.254;6.598;2022-09-09T10:57:00;18.40;99.90
51884;DHT22;37915;53.254;6.598;2022-09-09T10:59:40;18.60;99.90
51884;DHT22;37915;53.254;6.598;2022-09-09T11:02:28;18.70;99.90
51884;DHT22;37915;53.254;6.598;2022-09-09T11:05:10;18.60;99.90
51884;DHT22;37915;53.254;6.598;2022-09-09T11:10:44;18.60;99.90
51884;DHT22;37915;53.254;6.598;2022-09-09T11:13:21;18.80;99.90
51884;DHT22;37915;53.254;6.598;2022-09-09T11:15:53;18.90;99.90
51884;DHT22;37915;53.254;6.598;2022-09-09T11:18:21;19.00;99.90
51884;DHT22;37915;53.254;6.598;2022-09-09T11:20:54;19.00;99.90
51884;DHT22;37915;53.254;6.598;2022-09-09T11:23:32;19.00;99.90
51884;DHT22;37915;53.254;6.598;2022-09-09T11:26:01;19.00;99.90
51884;DHT22;37915;53.254;6.598;2022-09-09T11:42:19;19.80;99.90
51884;DHT22;37915;53.254;6.598;2022-09-09T11:44:45;19.70;99.90
51884;DHT22;37915;53.254;6.598;2022-09-09T11:49:47;19.70;99.90
51884;DHT22;37915;53.254;6.598;2022-09-09T11:55:25;19.80;99.90
51884;DHT22;37915;53.254;6.598;2022-09-09T11:58:05;19.80;99.90
51884;DHT22;37915;53.254;6.598;2022-09-09T12:00:42;19.80;99.90
51884;DHT22;37915;53.254;6.598;2022-09-09T12:03:48;19.80;99.90
51884;DHT22;37915;53.254;6.598;2022-09-09T12:06:33;19.70;99.90
51884;DHT22;37915;53.254;6.598;2022-09-09T12:09:26;19.70;99.90
51884;DHT22;37915;53.254;6.598;2022-09-09T12:11:53;19.80;99.90
51884;DHT22;37915;53.254;6.598;2022-09-09T12:17:26;20.10;99.90
51884;DHT22;37915;53.254;6.598;2022-09-09T12:33:40;20.10;99.90
51884;DHT22;37915;53.254;6.598;2022-09-09T12:36:18;20.10;99.90
51884;DHT22;37915;53.254;6.598;2022-09-09T12:38:45;20.20;99.90
51884;DHT22;37915;53.254;6.598;2022-09-09T12:41:22;20.20;99.90
51884;DHT22;37915;53.254;6.598;2022-09-09T12:43:49;20.20;99.90
51884;DHT22;37915;53.254;6.598;2022-09-09T12:46:32;20.20;99.90
51884;DHT22;37915;53.254;6.598;2022-09-09T12:49:01;20.10;99.90
51884;DHT22;37915;53.254;6.598;2022-09-09T12:51:33;20.00;99.90
51884;DHT22;37915;53.254;6.598;2022-09-09T12:53:59;19.80;99.90
51884;DHT22;37915;53.254;6.598;2022-09-09T12:56:28;19.70;99.90
51884;DHT22;37915;53.254;6.598;2022-09-09T12:58:56;19.70;99.90
51884;DHT22;37915;53.254;6.598;2022-09-09T13:01:31;19.90;99.90
51884;DHT22;37915;53.254;6.598;2022-09-09T13:03:59;20.00;99.90
51884;DHT22;37915;53.254;6.598;2022-09-09T13:06:27;20.10;99.90
51884;DHT22;37915;53.254;6.598;2022-09-09T13:08:54;20.20;99.90
51884;DHT22;37915;53.254;6.598;2022-09-09T13:11:30;20.20;99.90
51884;DHT22;37915;53.254;6.598;2022-09-09T13:13:59;20.20;99.90
51884;DHT22;37915;53.254;6.598;2022-09-09T13:16:35;20.20;99.90
51884;DHT22;37915;53.254;6.598;2022-09-09T13:19:15;20.40;99.90
51884;DHT22;37915;53.254;6.598;2022-09-09T13:21:42;20.50;99.90
51884;DHT22;37915;53.254;6.598;2022-09-09T13:24:33;20.60;99.90
51884;DHT22;37915;53.254;6.598;2022-09-09T13:27:01;20.70;99.90
51884;DHT22;37915;53.254;6.598;2022-09-09T13:29:28;20.80;99.90
51884;DHT22;37915;53.254;6.598;2022-09-09T13:32:06;20.70;99.90
51884;DHT22;37915;53.254;6.598;2022-09-09T13:34:38;20.60;99.90
51884;DHT22;37915;53.254;6.598;2022-09-09T13:37:05;20.50;99.90
51884;DHT22;37915;53.254;6.598;2022-09-09T13:39:36;20.50;99.90
51884;DHT22;37915;53.254;6.598;2022-09-09T13:42:03;20.50;99.90
51884;DHT22;37915;53.254;6.598;2022-09-09T13:44:38;20.40;99.90
51884;DHT22;37915;53.254;6.598;2022-09-09T13:47:15;20.50;99.90
51884;DHT22;37915;53.254;6.598;2022-09-09T13:49:43;20.70;99.90
51884;DHT22;37915;53.254;6.598;2022-09-09T13:52:13;20.90;99.90
51884;DHT22;37915;53.254;6.598;2022-09-09T13:54:40;20.80;99.90
51884;DHT22;37915;53.254;6.598;2022-09-09T13:57:23;20.70;99.90
51884;DHT22;37915;53.254;6.598;2022-09-09T13:59:52;20.60;99.90
51884;DHT22;37915;53.254;6.598;2022-09-09T14:02:18;20.40;99.90
51884;DHT22;37915;53.254;6.598;2022-09-09T14:04:44;20.30;99.90
51884;DHT22;37915;53.254;6.598;2022-09-09T14:07:14;20.20;99.90
51884;DHT22;37915;53.254;6.598;2022-09-09T14:09:40;20.20;99.90
51884;DHT22;37915;53.254;6.598;2022-09-09T14:12:11;20.20;99.90
51884;DHT22;37915;53.254;6.598;2022-09-09T14:14:37;20.50;99.90
51884;DHT22;37915;53.254;6.598;2022-09-09T14:17:03;20.70;99.90
51884;DHT22;37915;53.254;6.598;2022-09-09T14:19:29;21.00;99.90
51884;DHT22;37915;53.254;6.598;2022-09-09T14:21:57;21.10;99.90
51884;DHT22;37915;53.254;6.598;2022-09-09T14:24:22;21.00;99.90
51884;DHT22;37915;53.254;6.598;2022-09-09T14:26:48;20.80;99.90
51884;DHT22;37915;53.254;6.598;2022-09-09T14:29:14;20.60;99.90
51884;DHT22;37915;53.254;6.598;2022-09-09T14:31:40;20.30;99.90
51884;DHT22;37915;53.254;6.598;2022-09-09T14:34:05;20.20;99.90
51884;DHT22;37915;53.254;6.598;2022-09-09T14:36:31;20.10;99.90
51884;DHT22;37915;53.254;6.598;2022-09-09T14:38:57;20.20;99.90
51884;DHT22;37915;53.254;6.598;2022-09-09T14:41:24;20.20;99.90
51884;DHT22;37915;53.254;6.598;2022-09-09T14:43:51;20.10;99.90
51884;DHT22;37915;53.254;6.598;2022-09-09T14:46:19;20.00;99.90
51884;DHT22;37915;53.254;6.598;2022-09-09T14:48:45;19.90;99.90
51884;DHT22;37915;53.254;6.598;2022-09-09T14:51:16;19.80;99.90
51884;DHT22;37915;53.254;6.598;2022-09-09T14:53:43;19.80;99.90
51884;DHT22;37915;53.254;6.598;2022-09-09T14:56:20;19.70;99.90
51884;DHT22;37915;53.254;6.598;2022-09-09T14:58:47;19.60;99.90
51884;DHT22;37915;53.254;6.598;2022-09-09T15:01:16;19.40;99.90
51884;DHT22;37915;53.254;6.598;2022-09-09T15:03:48;19.10;99.90
51884;DHT22;37915;53.254;6.598;2022-09-09T15:06:14;18.90;99.90
51884;DHT22;37915;53.254;6.598;2022-09-09T15:08:42;18.60;99.90
51884;DHT22;37915;53.254;6.598;2022-09-09T15:11:09;18.40;99.90
51884;DHT22;37915;53.254;6.598;2022-09-09T15:13:36;18.30;99.90
51884;DHT22;37915;53.254;6.598;2022-09-09T15:16:16;18.10;99.90
51884;DHT22;37915;53.254;6.598;2022-09-09T15:18:43;18.10;99.90
51884;DHT22;37915;53.254;6.598;2022-09-09T15:21:15;18.10;99.90
51884;DHT22;37915;53.254;6.598;2022-09-09T15:23:41;18.20;99.90
51884;DHT22;37915;53.254;6.598;2022-09-09T15:26:08;18.40;99.90
51884;DHT22;37915;53.254;6.598;2022-09-09T15:28:35;18.70;99.90
51884;DHT22;37915;53.254;6.598;2022-09-09T15:31:05;18.90;99.90
51884;DHT22;37915;53.254;6.598;2022-09-09T15:33:32;19.00;99.90
51884;DHT22;37915;53.254;6.598;2022-09-09T15:35:59;19.10;99.90
51884;DHT22;37915;53.254;6.598;2022-09-09T15:38:24;19.00;99.90
51884;DHT22;37915;53.254;6.598;2022-09-09T15:40:54;18.90;99.90
51884;DHT22;37915;53.254;6.598;2022-09-09T15:43:21;18.90;99.90
51884;DHT22;37915;53.254;6.598;2022-09-09T15:45:53;18.80;99.90
51884;DHT22;37915;53.254;6.598;2022-09-09T15:48:30;18.70;99.90
51884;DHT22;37915;53.254;6.598;2022-09-09T15:51:02;18.60;99.90
51884;DHT22;37915;53.254;6.598;2022-09-09T15:53:29;18.70;99.90
51884;DHT22;37915;53.254;6.598;2022-09-09T15:55:55;18.70;99.90
51884;DHT22;37915;53.254;6.598;2022-09-09T15:58:21;18.80;99.90
51884;DHT22;37915;53.254;6.598;2022-09-09T16:00:46;18.80;99.90
51884;DHT22;37915;53.254;6.598;2022-09-09T16:03:13;18.80;99.90
51884;DHT22;37915;53.254;6.598;2022-09-09T16:05:38;18.70;99.90
51884;DHT22;37915;53.254;6.598;2022-09-09T16:08:04;18.70;99.90
51884;DHT22;37915;53.254;6.598;2022-09-09T16:10:30;18.70;99.90
51884;DHT22;37915;53.254;6.598;2022-09-09T16:12:56;18.80;99.90
51884;DHT22;37915;53.254;6.598;2022-09-09T16:15:22;18.80;99.90
51884;DHT22;37915;53.254;6.598;2022-09-09T16:17:49;18.80;99.90
51884;DHT22;37915;53.254;6.598;2022-09-09T16:20:14;18.70;99.90
51884;DHT22;37915;53.254;6.598;2022-09-09T16:22:40;18.70;99.90
51884;DHT22;37915;53.254;6.598;2022-09-09T16:25:07;18.60;99.90
51884;DHT22;37915;53.254;6.598;2022-09-09T16:27:33;18.60;99.90
51884;DHT22;37915;53.254;6.598;2022-09-09T16:29:59;18.50;99.90
51884;DHT22;37915;53.254;6.598;2022-09-09T16:32:25;18.40;99.90
51884;DHT22;37915;53.254;6.598;2022-09-09T16:34:50;18.30;99.90
51884;DHT22;37915;53.254;6.598;2022-09-09T16:37:16;18.30;99.90
51884;DHT22;37915;53.254;6.598;2022-09-09T16:39:43;18.30;99.90
51884;DHT22;37915;53.254;6.598;2022-09-09T16:42:08;18.20;99.90
51884;DHT22;37915;53.254;6.598;2022-09-09T16:44:35;18.20;99.90
51884;DHT22;37915;53.254;6.598;2022-09-09T16:47:00;18.20;99.90
51884;DHT22;37915;53.254;6.598;2022-09-09T16:49:26;18.20;99.90
51884;DHT22;37915;53.254;6.598;2022-09-09T16:51:53;18.20;99.90
51884;DHT22;37915;53.254;6.598;2022-09-09T16:54:19;18.10;99.90
51884;DHT22;37915;53.254;6.598;2022-09-09T16:56:47;18.10;99.90
51884;DHT22;37915;53.254;6.598;2022-09-09T16:59:15;18.10;99.90
51884;DHT22;37915;53.254;6.598;2022-09-09T17:01:42;18.00;99.90
51884;DHT22;37915;53.254;6.598;2022-09-09T17:04:14;18.00;99.90
51884;DHT22;37915;53.254;6.598;2022-09-09T17:06:49;17.90;99.90
51884;DHT22;37915;53.254;6.598;2022-09-09T17:09:15;17.80;99.90
51884;DHT22;37915;53.254;6.598;2022-09-09T17:11:41;17.80;99.90
51884;DHT22;37915;53.254;6.598;2022-09-09T17:14:10;17.70;99.90
51884;DHT22;37915;53.254;6.598;2022-09-09T17:16:36;17.70;99.90
51884;DHT22;37915;53.254;6.598;2022-09-09T17:19:04;17.60;99.90
51884;DHT22;37915;53.254;6.598;2022-09-09T17:21:32;17.60;99.90
51884;DHT22;37915;53.254;6.598;2022-09-09T17:23:58;17.60;99.90
51884;DHT22;37915;53.254;6.598;2022-09-09T17:26:27;17.60;99.90
51884;DHT22;37915;53.254;6.598;2022-09-09T17:28:53;17.60;99.90
51884;DHT22;37915;53.254;6.598;2022-09-09T17:31:21;17.60;99.90
51884;DHT22;37915;53.254;6.598;2022-09-09T17:33:48;17.50;99.90
51884;DHT22;37915;53.254;6.598;2022-09-09T17:36:26;17.50;99.90
51884;DHT22;37915;53.254;6.598;2022-09-09T17:38:53;17.50;99.90
51884;DHT22;37915;53.254;6.598;2022-09-09T17:41:25;17.40;99.90
51884;DHT22;37915;53.254;6.598;2022-09-09T17:43:51;17.40;99.90
51884;DHT22;37915;53.254;6.598;2022-09-09T17:46:29;17.40;99.90
51884;DHT22;37915;53.254;6.598;2022-09-09T17:48:57;17.40;99.90
51884;DHT22;37915;53.254;6.598;2022-09-09T17:51:24;17.40;99.90
51884;DHT22;37915;53.254;6.598;2022-09-09T17:53:54;17.40;99.90
51884;DHT22;37915;53.254;6.598;2022-09-09T17:56:22;17.30;99.90
51884;DHT22;37915;53.254;6.598;2022-09-09T17:58:52;17.30;99.90
51884;DHT22;37915;53.254;6.598;2022-09-09T18:01:26;17.30;99.90
51884;DHT22;37915;53.254;6.598;2022-09-09T18:03:54;17.20;99.90
51884;DHT22;37915;53.254;6.598;2022-09-09T18:06:24;17.20;99.90
51884;DHT22;37915;53.254;6.598;2022-09-09T18:08:56;17.20;99.90
51884;DHT22;37915;53.254;6.598;2022-09-09T18:11:28;17.20;99.90
51884;DHT22;37915;53.254;6.598;2022-09-09T18:13:59;17.10;99.90
51884;DHT22;37915;53.254;6.598;2022-09-09T18:16:28;17.10;99.90